createdAt,value
2018-12-15T00:03:23.211Z,19.97
2018-12-15T00:07:30.149Z,19.77
2018-12-15T00:11:35.125Z,20.10
2018-12-15T00:15:40.015Z,20.47
2018-12-15T00:19:46.162Z,19.70
2018-12-15T00:23:51.071Z,20.57
2018-12-15T00:27:56.073Z,20.67
2018-12-15T00:32:01.000Z,20.17
2018-12-15T00:40:23.070Z,19.67
2018-12-15T00:44:28.328Z,18.00
2018-12-15T00:48:33.232Z,21.10
2018-12-15T00:52:39.670Z,22.50
2018-12-15T00:56:44.614Z,20.57
2018-12-15T01:00:49.654Z,20.90
2018-12-15T01:04:54.606Z,21.77
2018-12-15T01:09:00.922Z,19.37
2018-12-15T01:13:07.876Z,17.93
2018-12-15T01:17:12.837Z,20.07
2018-12-15T01:21:17.717Z,21.73
2018-12-15T01:25:23.557Z,21.00
2018-12-15T01:29:28.434Z,19.93
2018-12-15T01:33:33.316Z,19.73
2018-12-15T01:37:38.896Z,19.07
2018-12-15T01:41:44.115Z,19.13
2018-12-15T01:45:49.007Z,18.93
2018-12-15T01:49:54.006Z,20.47
2018-12-15T01:54:02.296Z,19.57
2018-12-15T01:58:07.716Z,19.83
2018-12-15T02:02:13.616Z,18.93
2018-12-15T02:06:19.294Z,18.60
2018-12-15T02:10:24.183Z,19.87
2018-12-15T02:14:29.639Z,18.37
2018-12-15T02:18:34.512Z,16.57
2018-12-15T02:22:39.473Z,18.43
2018-12-15T02:26:44.355Z,13.30
2018-12-15T02:30:49.842Z,19.20
2018-12-15T02:34:54.736Z,19.23
2018-12-15T02:39:01.100Z,19.80
2018-12-15T02:43:08.076Z,18.80
2018-12-15T02:47:13.651Z,18.30
2018-12-15T02:51:18.736Z,19.20
2018-12-15T02:55:23.759Z,18.67
2018-12-15T02:59:28.790Z,18.70
2018-12-15T03:03:35.702Z,18.50
2018-12-15T03:07:40.824Z,17.53
2018-12-15T03:11:45.756Z,19.37
2018-12-15T03:15:50.766Z,16.33
2018-12-15T03:20:02.404Z,18.57
2018-12-15T03:24:07.886Z,18.87
2018-12-15T03:28:12.793Z,16.80
2018-12-15T03:32:17.664Z,9.87
2018-12-15T03:36:23.864Z,16.97
2018-12-15T03:40:29.406Z,16.73
2018-12-15T03:44:34.355Z,16.33
2018-12-15T03:48:39.310Z,14.97
2018-12-15T03:52:45.837Z,14.13
2018-12-15T03:56:51.738Z,15.33
2018-12-15T04:06:19.715Z,16.83
2018-12-15T04:10:25.119Z,15.83
2018-12-15T04:18:39.726Z,16.50
2018-12-15T04:22:45.295Z,14.60
2018-12-15T04:26:50.262Z,16.03
2018-12-15T04:30:57.531Z,17.80
2018-12-15T04:35:04.206Z,15.13
2018-12-15T04:39:09.208Z,17.63
2018-12-15T04:43:18.186Z,17.30
2018-12-15T04:47:40.796Z,17.40
2018-12-15T04:51:45.998Z,16.10
2018-12-15T04:55:55.776Z,16.03
2018-12-15T05:00:02.265Z,17.27
2018-12-15T05:04:09.343Z,15.27
2018-12-15T05:08:22.922Z,16.00
2018-12-15T05:12:29.824Z,16.33
2018-12-15T05:16:39.234Z,16.57
2018-12-15T05:21:10.908Z,16.03
2018-12-15T05:25:16.062Z,14.67
2018-12-15T05:33:29.273Z,15.07
2018-12-15T05:37:35.046Z,16.97
2018-12-15T05:41:40.632Z,17.67
2018-12-15T05:45:48.079Z,16.93
2018-12-15T05:49:55.125Z,16.57
2018-12-15T05:59:25.158Z,15.40
2018-12-15T06:03:31.212Z,14.97
2018-12-15T06:11:46.083Z,12.90
2018-12-15T06:15:54.842Z,12.83
2018-12-15T06:20:07.068Z,16.60
2018-12-15T06:24:12.198Z,16.03
2018-12-15T06:28:20.466Z,13.67
2018-12-15T06:32:26.078Z,15.47
2018-12-15T06:36:32.045Z,12.27
2018-12-15T06:40:42.613Z,17.00
2018-12-15T06:44:48.587Z,6.87
2018-12-15T06:49:03.462Z,16.63
2018-12-15T06:53:09.768Z,17.50
2018-12-15T06:57:14.882Z,14.37
2018-12-15T07:01:23.449Z,16.93
2018-12-15T07:05:30.564Z,15.63
2018-12-15T07:13:48.191Z,17.23
2018-12-15T07:17:54.316Z,17.40
2018-12-15T07:22:03.708Z,17.07
2018-12-15T07:26:10.628Z,17.77
2018-12-15T07:30:20.525Z,14.53
2018-12-15T07:34:26.097Z,18.17
2018-12-15T07:38:32.553Z,14.97
2018-12-15T07:42:46.269Z,17.03
2018-12-15T07:46:52.735Z,16.03
2018-12-15T07:51:03.758Z,12.87
2018-12-15T07:55:10.681Z,18.97
2018-12-15T07:59:24.631Z,19.53
2018-12-15T08:03:30.546Z,18.17
2018-12-15T08:17:11.705Z,18.57
2018-12-15T08:21:18.462Z,18.97
2018-12-15T08:30:48.583Z,17.87
2018-12-15T08:34:56.746Z,18.50
2018-12-15T08:39:02.445Z,15.73
2018-12-15T08:43:09.888Z,16.23
2018-12-15T08:47:23.201Z,16.80
2018-12-15T08:51:30.573Z,20.60
2018-12-15T08:55:44.211Z,19.13
2018-12-15T09:14:38.711Z,18.93
2018-12-15T09:18:44.619Z,14.43
2018-12-15T09:22:49.824Z,15.37
2018-12-15T09:26:58.900Z,14.90
2018-12-15T09:31:18.493Z,14.73
2018-12-15T09:35:32.018Z,14.77
2018-12-15T09:39:37.320Z,14.77
2018-12-15T09:43:47.342Z,15.00
2018-12-15T09:47:54.724Z,14.17
2018-12-15T09:56:31.896Z,14.70
2018-12-15T10:00:39.564Z,12.60
2018-12-15T10:04:48.197Z,14.40
2018-12-15T10:08:54.291Z,11.77
2018-12-15T10:17:14.989Z,13.13
2018-12-15T10:25:30.707Z,13.80
2018-12-15T10:34:13.359Z,12.67
2018-12-15T10:38:25.368Z,13.30
2018-12-15T10:42:31.589Z,13.63
2018-12-15T10:46:36.878Z,9.47
2018-12-15T10:50:53.064Z,12.73
2018-12-15T10:54:58.853Z,8.63
2018-12-15T10:59:11.559Z,10.70
2018-12-15T11:03:17.865Z,12.67
2018-12-15T11:07:34.271Z,11.90
2018-12-15T11:11:39.857Z,12.40
2018-12-15T11:15:46.699Z,12.80
2018-12-15T11:19:52.087Z,13.73
2018-12-15T11:23:58.547Z,13.87
2018-12-15T11:28:10.492Z,15.33
2018-12-15T11:32:23.357Z,13.83
2018-12-15T11:36:28.980Z,14.13
2018-12-15T11:40:38.530Z,13.00
2018-12-15T11:44:46.090Z,13.67
2018-12-15T11:53:05.415Z,13.67
2018-12-15T11:57:16.734Z,13.33
2018-12-15T12:01:22.204Z,11.73
2018-12-15T12:05:27.674Z,14.63
2018-12-15T12:09:36.313Z,12.40
2018-12-15T12:13:42.407Z,13.10
2018-12-15T12:17:48.415Z,13.00
2018-12-15T12:21:59.855Z,12.73
2018-12-15T12:26:08.441Z,12.63
2018-12-15T12:30:21.858Z,13.83
2018-12-15T12:34:27.048Z,12.60
2018-12-15T12:38:35.600Z,10.83
2018-12-15T12:42:40.766Z,13.33
2018-12-15T12:46:46.423Z,14.20
2018-12-15T12:50:55.771Z,14.57
2018-12-15T12:55:01.578Z,13.47
2018-12-15T12:59:07.608Z,14.40
2018-12-15T13:03:17.436Z,15.07
2018-12-15T13:07:23.483Z,15.00
2018-12-15T13:11:28.631Z,15.00
2018-12-15T13:15:40.706Z,14.20
2018-12-15T13:19:46.831Z,15.67
2018-12-15T13:24:00.754Z,12.43
2018-12-15T13:28:07.962Z,16.53
2018-12-15T13:32:13.048Z,16.23
2018-12-15T13:36:23.058Z,14.87
2018-12-15T13:40:29.291Z,14.80
2018-12-15T13:44:44.312Z,13.50
2018-12-15T13:48:49.683Z,13.30
2018-12-15T13:52:55.035Z,15.30
2018-12-15T13:57:03.626Z,14.57
2018-12-15T14:01:09.997Z,11.83
2018-12-15T14:09:24.608Z,9.93
2018-12-15T14:13:30.396Z,14.70
2018-12-15T14:17:36.403Z,9.60
2018-12-15T14:21:42.937Z,14.93
2018-12-15T14:25:51.745Z,14.53
2018-12-15T14:29:58.708Z,14.90
2018-12-15T14:34:04.052Z,14.23
2018-12-15T14:38:18.074Z,13.87
2018-12-15T14:42:24.988Z,14.50
2018-12-15T14:46:39.909Z,12.27
2018-12-15T14:54:54.696Z,15.37
2018-12-15T14:58:59.794Z,15.33
2018-12-15T15:03:09.792Z,14.17
2018-12-15T15:07:16.432Z,16.03
2018-12-15T15:15:37.539Z,11.40
2018-12-15T15:19:44.191Z,16.40
2018-12-15T15:23:49.270Z,12.50
2018-12-15T15:27:58.193Z,16.83
2018-12-15T15:32:03.245Z,15.77
2018-12-15T15:36:09.835Z,13.33
2018-12-15T15:40:23.600Z,17.60
2018-12-15T15:44:29.344Z,16.43
2018-12-15T15:48:44.130Z,14.03
2018-12-15T15:52:50.552Z,16.97
2018-12-15T15:56:56.731Z,16.77
2018-12-15T16:01:02.371Z,15.10
2018-12-15T16:09:23.716Z,13.87
2018-12-15T16:13:29.196Z,14.70
2018-12-15T16:17:42.447Z,16.53
2018-12-15T16:21:47.644Z,10.60
2018-12-15T16:25:59.094Z,16.17
2018-12-15T16:30:06.547Z,15.00
2018-12-15T16:34:19.071Z,15.93
2018-12-15T16:38:25.440Z,14.50
2018-12-15T16:42:39.628Z,17.50
2018-12-15T16:46:45.229Z,14.07
2018-12-15T16:55:00.154Z,17.40
2018-12-15T16:59:05.820Z,18.33
2018-12-15T17:03:19.366Z,18.50
2018-12-15T17:07:27.357Z,19.33
2018-12-15T17:11:36.216Z,18.00
2018-12-15T17:15:45.130Z,18.60
2018-12-15T17:19:54.855Z,20.13
2018-12-15T17:23:59.817Z,19.20
2018-12-15T17:28:07.286Z,17.53
2018-12-15T17:32:16.308Z,18.77
2018-12-15T17:36:24.295Z,19.30
2018-12-15T17:40:29.855Z,18.60
2018-12-15T17:44:38.920Z,20.13
2018-12-15T17:48:45.023Z,19.67
2018-12-15T17:52:55.094Z,20.63
2018-12-15T17:57:00.070Z,21.43
2018-12-15T18:01:06.084Z,20.37
2018-12-15T18:05:19.468Z,21.23
2018-12-15T18:09:28.190Z,21.00
2018-12-15T18:13:36.541Z,19.10
2018-12-15T18:17:42.023Z,19.20
2018-12-15T18:21:46.973Z,21.30
2018-12-15T18:26:00.194Z,21.10
2018-12-15T18:30:07.937Z,18.87
2018-12-15T18:34:14.018Z,19.90
2018-12-15T18:38:26.866Z,19.90
2018-12-15T18:42:41.282Z,19.57
2018-12-15T18:46:46.372Z,18.10
2018-12-15T18:50:52.613Z,19.83
2018-12-15T18:55:01.691Z,18.87
2018-12-15T18:59:09.648Z,18.43
2018-12-15T19:03:15.856Z,15.30
2018-12-15T19:07:28.411Z,18.80
2018-12-15T19:15:46.242Z,18.87
2018-12-15T19:19:52.694Z,20.23
2018-12-15T19:24:01.574Z,20.43
2018-12-15T19:28:08.210Z,18.67
2018-12-15T19:32:15.385Z,17.93
2018-12-15T19:36:28.364Z,18.23
2018-12-15T19:40:35.384Z,16.13
2018-12-15T19:44:43.260Z,20.07
2018-12-15T19:48:49.663Z,17.10
2018-12-15T19:52:55.661Z,20.20
2018-12-15T19:57:03.760Z,18.23
2018-12-15T20:01:08.860Z,18.60
2018-12-15T20:05:15.432Z,19.83
2018-12-15T20:09:22.552Z,18.17
2018-12-15T20:13:28.100Z,19.47
2018-12-15T20:17:33.672Z,17.90
2018-12-15T20:21:43.829Z,19.03
2018-12-15T20:25:49.565Z,16.77
2018-12-15T20:34:09.482Z,19.17
2018-12-15T20:42:25.983Z,18.83
2018-12-15T20:46:31.153Z,16.47
2018-12-15T20:50:36.916Z,16.07
2018-12-15T20:54:45.511Z,15.50
2018-12-15T20:58:51.663Z,14.10
2018-12-15T21:02:57.633Z,13.57
2018-12-15T21:07:05.749Z,16.47
2018-12-15T21:11:13.357Z,14.77
2018-12-15T21:15:25.711Z,11.47
2018-12-15T21:19:31.938Z,12.90
2018-12-15T21:23:38.440Z,12.93
2018-12-15T21:27:48.480Z,13.60
2018-12-15T21:31:56.676Z,11.93
2018-12-15T21:36:10.211Z,11.27
2018-12-15T21:40:15.522Z,11.47
2018-12-15T21:48:33.961Z,9.63
2018-12-15T21:52:40.357Z,12.83
2018-12-15T21:56:46.530Z,9.90
2018-12-15T22:00:53.312Z,13.67
2018-12-15T22:04:58.241Z,13.63
2018-12-15T22:09:07.303Z,14.80
2018-12-15T22:13:14.165Z,13.43
2018-12-15T22:25:55.232Z,10.60
2018-12-15T22:34:14.647Z,13.30
2018-12-15T22:38:20.037Z,13.23
2018-12-15T22:42:26.114Z,12.37
2018-12-15T22:46:31.148Z,11.37
2018-12-15T22:50:40.044Z,11.47
2018-12-15T22:54:45.559Z,11.50
2018-12-15T22:58:51.051Z,12.43
2018-12-15T23:02:56.073Z,9.87
2018-12-15T23:07:02.284Z,10.87
2018-12-15T23:11:08.003Z,9.93
2018-12-15T23:15:17.867Z,11.80
2018-12-15T23:19:24.724Z,11.97
2018-12-15T23:27:40.571Z,12.30
2018-12-15T23:31:45.950Z,14.60
2018-12-15T23:40:00.804Z,12.60
2018-12-15T23:44:06.834Z,12.63
2018-12-15T23:48:20.299Z,10.70
2018-12-15T23:52:25.731Z,13.50
